sensor_id;sensor_type;location;lat;lon;timestamp;P1;durP1;ratioP1;P2;durP2;ratioP2
4389;SDS011;2209;48.982;8.406;2023-04-15T00:01:35;2.90;;;1.90;;
4389;SDS011;2209;48.982;8.406;2023-04-15T00:03:58;1.50;;;1.40;;
4389;SDS011;2209;48.982;8.406;2023-04-15T00:06:20;1.70;;;1.60;;
4389;SDS011;2209;48.982;8.406;2023-04-15T00:08:42;1.50;;;1.40;;
4389;SDS011;2209;48.982;8.406;2023-04-15T00:11:04;1.80;;;1.70;;
4389;SDS011;2209;48.982;8.406;2023-04-15T00:13:30;2.63;;;2.10;;
4389;SDS011;2209;48.982;8.406;2023-04-15T00:15:54;5.67;;;2.33;;
4389;SDS011;2209;48.982;8.406;2023-04-15T00:18:16;2.70;;;2.03;;
4389;SDS011;2209;48.982;8.406;2023-04-15T00:20:38;2.93;;;2.27;;
4389;SDS011;2209;48.982;8.406;2023-04-15T00:23:01;4.07;;;2.10;;
4389;SDS011;2209;48.982;8.406;2023-04-15T00:25:23;2.33;;;1.97;;
4389;SDS011;2209;48.982;8.406;2023-04-15T00:27:45;2.17;;;1.93;;
4389;SDS011;2209;48.982;8.406;2023-04-15T00:30:08;3.73;;;2.17;;
4389;SDS011;2209;48.982;8.406;2023-04-15T00:32:32;9.40;;;2.63;;
4389;SDS011;2209;48.982;8.406;2023-04-15T00:34:54;5.00;;;2.70;;
4389;SDS011;2209;48.982;8.406;2023-04-15T00:37:16;6.50;;;2.70;;
4389;SDS011;2209;48.982;8.406;2023-04-15T00:39:39;5.63;;;2.17;;
4389;SDS011;2209;48.982;8.406;2023-04-15T00:42:01;4.30;;;2.37;;
4389;SDS011;2209;48.982;8.406;2023-04-15T00:44:24;2.23;;;2.00;;
4389;SDS011;2209;48.982;8.406;2023-04-15T00:46:46;3.93;;;1.90;;
4389;SDS011;2209;48.982;8.406;2023-04-15T00:49:12;1.83;;;1.73;;
4389;SDS011;2209;48.982;8.406;2023-04-15T00:51:34;3.13;;;1.93;;
4389;SDS011;2209;48.982;8.406;2023-04-15T00:53:56;2.67;;;1.63;;
4389;SDS011;2209;48.982;8.406;2023-04-15T00:56:19;2.30;;;1.70;;
4389;SDS011;2209;48.982;8.406;2023-04-15T00:58:43;2.63;;;1.80;;
4389;SDS011;2209;48.982;8.406;2023-04-15T01:04:25;3.50;;;2.13;;
4389;SDS011;2209;48.982;8.406;2023-04-15T01:06:47;1.40;;;1.30;;
4389;SDS011;2209;48.982;8.406;2023-04-15T01:09:10;2.93;;;2.23;;
4389;SDS011;2209;48.982;8.406;2023-04-15T01:11:32;2.77;;;1.53;;
4389;SDS011;2209;48.982;8.406;2023-04-15T01:13:55;3.37;;;2.40;;
4389;SDS011;2209;48.982;8.406;2023-04-15T01:16:19;2.43;;;2.03;;
4389;SDS011;2209;48.982;8.406;2023-04-15T01:18:42;4.03;;;2.90;;
4389;SDS011;2209;48.982;8.406;2023-04-15T01:21:07;5.13;;;2.70;;
4389;SDS011;2209;48.982;8.406;2023-04-15T01:23:30;2.87;;;2.50;;
4389;SDS011;2209;48.982;8.406;2023-04-15T01:25:55;6.03;;;2.20;;
4389;SDS011;2209;48.982;8.406;2023-04-15T01:28:18;5.80;;;2.10;;
4389;SDS011;2209;48.982;8.406;2023-04-15T01:30:41;2.57;;;2.23;;
4389;SDS011;2209;48.982;8.406;2023-04-15T01:33:04;4.43;;;2.20;;
4389;SDS011;2209;48.982;8.406;2023-04-15T01:35:26;3.30;;;2.10;;
4389;SDS011;2209;48.982;8.406;2023-04-15T01:37:48;3.90;;;2.10;;
4389;SDS011;2209;48.982;8.406;2023-04-15T01:40:10;4.23;;;1.77;;
4389;SDS011;2209;48.982;8.406;2023-04-15T01:42:35;2.97;;;1.87;;
4389;SDS011;2209;48.982;8.406;2023-04-15T01:44:57;4.00;;;2.20;;
4389;SDS011;2209;48.982;8.406;2023-04-15T01:47:20;6.10;;;3.30;;
4389;SDS011;2209;48.982;8.406;2023-04-15T01:49:42;2.60;;;2.40;;
4389;SDS011;2209;48.982;8.406;2023-04-15T01:52:04;2.10;;;1.83;;
4389;SDS011;2209;48.982;8.406;2023-04-15T01:54:27;2.80;;;2.60;;
4389;SDS011;2209;48.982;8.406;2023-04-15T01:56:49;1.80;;;1.70;;
4389;SDS011;2209;48.982;8.406;2023-04-15T01:59:12;2.43;;;1.67;;
4389;SDS011;2209;48.982;8.406;2023-04-15T02:01:34;6.20;;;2.30;;
4389;SDS011;2209;48.982;8.406;2023-04-15T02:03:57;3.97;;;2.33;;
4389;SDS011;2209;48.982;8.406;2023-04-15T02:06:19;3.20;;;2.30;;
4389;SDS011;2209;48.982;8.406;2023-04-15T02:08:41;3.63;;;2.10;;
4389;SDS011;2209;48.982;8.406;2023-04-15T02:11:03;4.30;;;2.40;;
4389;SDS011;2209;48.982;8.406;2023-04-15T02:13:25;2.93;;;2.50;;
4389;SDS011;2209;48.982;8.406;2023-04-15T02:15:49;2.67;;;2.47;;
4389;SDS011;2209;48.982;8.406;2023-04-15T02:18:11;2.70;;;2.50;;
4389;SDS011;2209;48.982;8.406;2023-04-15T02:20:33;2.60;;;2.40;;
4389;SDS011;2209;48.982;8.406;2023-04-15T02:22:56;5.33;;;3.50;;
4389;SDS011;2209;48.982;8.406;2023-04-15T02:25:18;3.37;;;2.83;;
4389;SDS011;2209;48.982;8.406;2023-04-15T02:27:40;4.27;;;3.07;;
4389;SDS011;2209;48.982;8.406;2023-04-15T02:30:03;5.67;;;3.23;;
4389;SDS011;2209;48.982;8.406;2023-04-15T02:32:27;3.40;;;3.10;;
4389;SDS011;2209;48.982;8.406;2023-04-15T02:34:49;2.60;;;2.40;;
4389;SDS011;2209;48.982;8.406;2023-04-15T02:37:12;3.93;;;3.07;;
4389;SDS011;2209;48.982;8.406;2023-04-15T02:39:35;3.50;;;3.20;;
4389;SDS011;2209;48.982;8.406;2023-04-15T02:41:57;4.17;;;2.60;;
4389;SDS011;2209;48.982;8.406;2023-04-15T02:44:20;6.93;;;3.97;;
4389;SDS011;2209;48.982;8.406;2023-04-15T02:46:44;4.00;;;3.23;;
4389;SDS011;2209;48.982;8.406;2023-04-15T02:49:11;9.43;;;3.50;;
4389;SDS011;2209;48.982;8.406;2023-04-15T02:51:33;6.40;;;3.87;;
4389;SDS011;2209;48.982;8.406;2023-04-15T02:53:55;9.40;;;3.47;;
4389;SDS011;2209;48.982;8.406;2023-04-15T02:56:17;3.17;;;2.87;;
4389;SDS011;2209;48.982;8.406;2023-04-15T02:58:40;4.50;;;3.57;;
4389;SDS011;2209;48.982;8.406;2023-04-15T03:01:05;4.83;;;3.40;;
4389;SDS011;2209;48.982;8.406;2023-04-15T03:03:28;3.20;;;2.50;;
4389;SDS011;2209;48.982;8.406;2023-04-15T03:05:51;5.20;;;3.27;;
4389;SDS011;2209;48.982;8.406;2023-04-15T03:08:13;5.60;;;2.97;;
4389;SDS011;2209;48.982;8.406;2023-04-15T03:10:35;3.63;;;2.50;;
4389;SDS011;2209;48.982;8.406;2023-04-15T03:12:58;3.80;;;3.20;;
4389;SDS011;2209;48.982;8.406;2023-04-15T03:15:20;4.30;;;3.13;;
4389;SDS011;2209;48.982;8.406;2023-04-15T03:17:42;5.53;;;3.27;;
4389;SDS011;2209;48.982;8.406;2023-04-15T03:20:05;4.13;;;2.30;;
4389;SDS011;2209;48.982;8.406;2023-04-15T03:22:29;2.77;;;2.57;;
4389;SDS011;2209;48.982;8.406;2023-04-15T03:24:51;2.63;;;2.40;;
4389;SDS011;2209;48.982;8.406;2023-04-15T03:27:13;5.20;;;2.87;;
4389;SDS011;2209;48.982;8.406;2023-04-15T03:29:35;4.50;;;3.10;;
4389;SDS011;2209;48.982;8.406;2023-04-15T03:31:58;2.47;;;2.27;;
4389;SDS011;2209;48.982;8.406;2023-04-15T03:34:20;4.13;;;3.73;;
4389;SDS011;2209;48.982;8.406;2023-04-15T03:36:42;3.80;;;3.30;;
4389;SDS011;2209;48.982;8.406;2023-04-15T03:39:05;5.27;;;2.70;;
4389;SDS011;2209;48.982;8.406;2023-04-15T03:41:27;3.20;;;2.20;;
4389;SDS011;2209;48.982;8.406;2023-04-15T03:43:50;2.80;;;2.60;;
4389;SDS011;2209;48.982;8.406;2023-04-15T03:46:12;2.50;;;2.03;;
4389;SDS011;2209;48.982;8.406;2023-04-15T03:48:34;3.80;;;2.30;;
4389;SDS011;2209;48.982;8.406;2023-04-15T03:50:56;4.27;;;2.80;;
4389;SDS011;2209;48.982;8.406;2023-04-15T03:53:19;2.83;;;2.60;;
4389;SDS011;2209;48.982;8.406;2023-04-15T03:55:43;3.50;;;2.53;;
4389;SDS011;2209;48.982;8.406;2023-04-15T03:58:05;2.37;;;2.17;;
4389;SDS011;2209;48.982;8.406;2023-04-15T04:00:27;2.73;;;2.00;;
4389;SDS011;2209;48.982;8.406;2023-04-15T04:02:49;2.80;;;2.40;;
4389;SDS011;2209;48.982;8.406;2023-04-15T04:05:11;3.30;;;2.57;;
4389;SDS011;2209;48.982;8.406;2023-04-15T04:07:33;2.70;;;2.50;;
4389;SDS011;2209;48.982;8.406;2023-04-15T04:09:56;2.50;;;2.30;;
4389;SDS011;2209;48.982;8.406;2023-04-15T04:12:19;3.83;;;2.50;;
4389;SDS011;2209;48.982;8.406;2023-04-15T04:14:41;2.70;;;2.07;;
4389;SDS011;2209;48.982;8.406;2023-04-15T04:17:04;3.07;;;2.33;;
4389;SDS011;2209;48.982;8.406;2023-04-15T04:19:26;5.20;;;3.00;;
4389;SDS011;2209;48.982;8.406;2023-04-15T04:21:49;2.80;;;2.60;;
4389;SDS011;2209;48.982;8.406;2023-04-15T04:24:12;2.60;;;2.40;;
4389;SDS011;2209;48.982;8.406;2023-04-15T04:26:34;2.40;;;2.20;;
4389;SDS011;2209;48.982;8.406;2023-04-15T04:28:57;2.30;;;2.13;;
4389;SDS011;2209;48.982;8.406;2023-04-15T04:31:19;7.43;;;4.27;;
4389;SDS011;2209;48.982;8.406;2023-04-15T04:33:41;2.00;;;1.83;;
4389;SDS011;2209;48.982;8.406;2023-04-15T04:36:04;2.03;;;1.93;;
4389;SDS011;2209;48.982;8.406;2023-04-15T04:38:26;2.63;;;2.43;;
4389;SDS011;2209;48.982;8.406;2023-04-15T04:40:48;2.23;;;2.03;;
4389;SDS011;2209;48.982;8.406;2023-04-15T04:43:11;2.30;;;2.20;;
4389;SDS011;2209;48.982;8.406;2023-04-15T04:45:35;2.63;;;2.40;;
4389;SDS011;2209;48.982;8.406;2023-04-15T04:47:57;3.70;;;2.07;;
4389;SDS011;2209;48.982;8.406;2023-04-15T04:50:19;2.97;;;2.30;;
4389;SDS011;2209;48.982;8.406;2023-04-15T04:52:42;2.60;;;2.40;;
4389;SDS011;2209;48.982;8.406;2023-04-15T04:55:04;2.33;;;2.13;;
4389;SDS011;2209;48.982;8.406;2023-04-15T04:57:27;2.97;;;2.23;;
4389;SDS011;2209;48.982;8.406;2023-04-15T04:59:50;4.23;;;2.20;;
4389;SDS011;2209;48.982;8.406;2023-04-15T05:02:13;4.17;;;2.63;;
4389;SDS011;2209;48.982;8.406;2023-04-15T05:04:35;2.70;;;2.30;;
4389;SDS011;2209;48.982;8.406;2023-04-15T05:06:57;2.83;;;2.60;;
4389;SDS011;2209;48.982;8.406;2023-04-15T05:09:20;3.90;;;2.77;;
4389;SDS011;2209;48.982;8.406;2023-04-15T05:11:42;6.70;;;2.90;;
4389;SDS011;2209;48.982;8.406;2023-04-15T05:14:04;3.73;;;2.30;;
4389;SDS011;2209;48.982;8.406;2023-04-15T05:16:26;3.20;;;2.90;;
4389;SDS011;2209;48.982;8.406;2023-04-15T05:18:50;2.40;;;2.17;;
4389;SDS011;2209;48.982;8.406;2023-04-15T05:21:12;8.80;;;3.03;;
4389;SDS011;2209;48.982;8.406;2023-04-15T05:23:34;3.27;;;2.23;;
4389;SDS011;2209;48.982;8.406;2023-04-15T05:25:57;2.47;;;2.10;;
4389;SDS011;2209;48.982;8.406;2023-04-15T05:28:19;5.63;;;2.50;;
4389;SDS011;2209;48.982;8.406;2023-04-15T05:30:41;4.90;;;2.37;;
4389;SDS011;2209;48.982;8.406;2023-04-15T05:33:03;6.93;;;2.10;;
4389;SDS011;2209;48.982;8.406;2023-04-15T05:35:27;3.10;;;2.30;;
4389;SDS011;2209;48.982;8.406;2023-04-15T05:37:49;4.53;;;2.00;;
4389;SDS011;2209;48.982;8.406;2023-04-15T05:40:11;4.37;;;1.93;;
4389;SDS011;2209;48.982;8.406;2023-04-15T05:42:33;3.00;;;2.70;;
4389;SDS011;2209;48.982;8.406;2023-04-15T05:44:56;2.47;;;2.23;;
4389;SDS011;2209;48.982;8.406;2023-04-15T05:47:18;7.90;;;2.20;;
4389;SDS011;2209;48.982;8.406;2023-04-15T05:49:40;2.47;;;2.30;;
4389;SDS011;2209;48.982;8.406;2023-04-15T05:52:04;2.67;;;2.40;;
4389;SDS011;2209;48.982;8.406;2023-04-15T05:54:26;2.97;;;2.70;;
4389;SDS011;2209;48.982;8.406;2023-04-15T05:56:48;3.77;;;2.27;;
4389;SDS011;2209;48.982;8.406;2023-04-15T05:59:10;2.47;;;2.27;;
4389;SDS011;2209;48.982;8.406;2023-04-15T06:01:33;2.50;;;2.00;;
4389;SDS011;2209;48.982;8.406;2023-04-15T06:03:55;4.13;;;2.40;;
4389;SDS011;2209;48.982;8.406;2023-04-15T06:06:17;3.40;;;3.07;;
4389;SDS011;2209;48.982;8.406;2023-04-15T06:08:41;3.90;;;3.50;;
4389;SDS011;2209;48.982;8.406;2023-04-15T06:11:03;3.47;;;3.10;;
4389;SDS011;2209;48.982;8.406;2023-04-15T06:13:25;5.80;;;3.70;;
4389;SDS011;2209;48.982;8.406;2023-04-15T06:15:48;3.70;;;3.20;;
4389;SDS011;2209;48.982;8.406;2023-04-15T06:18:10;3.33;;;2.57;;
4389;SDS011;2209;48.982;8.406;2023-04-15T06:20:32;7.50;;;3.17;;
4389;SDS011;2209;48.982;8.406;2023-04-15T06:22:54;3.83;;;2.90;;
4389;SDS011;2209;48.982;8.406;2023-04-15T06:25:18;4.37;;;3.13;;
4389;SDS011;2209;48.982;8.406;2023-04-15T06:27:40;3.20;;;2.90;;
4389;SDS011;2209;48.982;8.406;2023-04-15T06:30:02;6.63;;;3.97;;
4389;SDS011;2209;48.982;8.406;2023-04-15T06:32:24;3.57;;;3.27;;
4389;SDS011;2209;48.982;8.406;2023-04-15T06:34:46;3.27;;;2.83;;
4389;SDS011;2209;48.982;8.406;2023-04-15T06:37:10;3.93;;;3.57;;
4389;SDS011;2209;48.982;8.406;2023-04-15T06:39:35;3.70;;;3.13;;
4389;SDS011;2209;48.982;8.406;2023-04-15T06:41:59;3.40;;;2.73;;
4389;SDS011;2209;48.982;8.406;2023-04-15T06:44:21;9.57;;;3.30;;
4389;SDS011;2209;48.982;8.406;2023-04-15T06:46:43;4.00;;;3.60;;
4389;SDS011;2209;48.982;8.406;2023-04-15T06:49:05;4.80;;;3.53;;
4389;SDS011;2209;48.982;8.406;2023-04-15T06:51:27;4.40;;;3.70;;
4389;SDS011;2209;48.982;8.406;2023-04-15T06:53:49;4.27;;;3.10;;
4389;SDS011;2209;48.982;8.406;2023-04-15T06:56:11;6.30;;;2.77;;
4389;SDS011;2209;48.982;8.406;2023-04-15T06:58:35;5.10;;;3.37;;
4389;SDS011;2209;48.982;8.406;2023-04-15T07:00:57;4.47;;;3.63;;
4389;SDS011;2209;48.982;8.406;2023-04-15T07:03:19;4.87;;;3.30;;
4389;SDS011;2209;48.982;8.406;2023-04-15T07:05:41;4.13;;;3.50;;
4389;SDS011;2209;48.982;8.406;2023-04-15T07:08:04;3.73;;;2.97;;
4389;SDS011;2209;48.982;8.406;2023-04-15T07:10:27;4.27;;;3.00;;
4389;SDS011;2209;48.982;8.406;2023-04-15T07:12:49;4.93;;;3.33;;
4389;SDS011;2209;48.982;8.406;2023-04-15T07:15:13;7.13;;;3.30;;
4389;SDS011;2209;48.982;8.406;2023-04-15T07:17:35;5.30;;;3.80;;
4389;SDS011;2209;48.982;8.406;2023-04-15T07:19:57;6.67;;;3.20;;
4389;SDS011;2209;48.982;8.406;2023-04-15T07:22:19;5.80;;;3.47;;
4389;SDS011;2209;48.982;8.406;2023-04-15T07:24:42;3.90;;;3.00;;
4389;SDS011;2209;48.982;8.406;2023-04-15T07:27:04;3.30;;;2.83;;
4389;SDS011;2209;48.982;8.406;2023-04-15T07:29:26;4.23;;;3.33;;
4389;SDS011;2209;48.982;8.406;2023-04-15T07:31:49;4.07;;;3.17;;
4389;SDS011;2209;48.982;8.406;2023-04-15T07:34:11;9.40;;;4.27;;
4389;SDS011;2209;48.982;8.406;2023-04-15T07:36:34;6.33;;;3.60;;
4389;SDS011;2209;48.982;8.406;2023-04-15T07:38:56;8.47;;;3.60;;
4389;SDS011;2209;48.982;8.406;2023-04-15T07:41:18;8.97;;;3.60;;
4389;SDS011;2209;48.982;8.406;2023-04-15T07:43:40;5.13;;;3.57;;
4389;SDS011;2209;48.982;8.406;2023-04-15T07:46:02;5.90;;;3.80;;
4389;SDS011;2209;48.982;8.406;2023-04-15T07:48:26;3.57;;;3.00;;
4389;SDS011;2209;48.982;8.406;2023-04-15T07:50:48;3.50;;;2.90;;
4389;SDS011;2209;48.982;8.406;2023-04-15T07:53:10;5.87;;;3.30;;
4389;SDS011;2209;48.982;8.406;2023-04-15T07:55:32;3.03;;;2.60;;
4389;SDS011;2209;48.982;8.406;2023-04-15T07:57:55;2.93;;;2.63;;
4389;SDS011;2209;48.982;8.406;2023-04-15T08:00:17;4.30;;;3.10;;
4389;SDS011;2209;48.982;8.406;2023-04-15T08:02:39;3.50;;;2.70;;
4389;SDS011;2209;48.982;8.406;2023-04-15T08:05:03;2.77;;;2.47;;
4389;SDS011;2209;48.982;8.406;2023-04-15T08:07:26;3.70;;;2.40;;
4389;SDS011;2209;48.982;8.406;2023-04-15T08:09:48;3.43;;;2.33;;
4389;SDS011;2209;48.982;8.406;2023-04-15T08:12:11;3.00;;;2.40;;
4389;SDS011;2209;48.982;8.406;2023-04-15T08:14:33;5.50;;;2.40;;
4389;SDS011;2209;48.982;8.406;2023-04-15T08:16:55;3.40;;;3.10;;
4389;SDS011;2209;48.982;8.406;2023-04-15T08:19:17;2.77;;;2.20;;
4389;SDS011;2209;48.982;8.406;2023-04-15T08:21:41;6.07;;;2.80;;
4389;SDS011;2209;48.982;8.406;2023-04-15T08:24:03;4.40;;;2.37;;
4389;SDS011;2209;48.982;8.406;2023-04-15T08:26:26;5.60;;;2.77;;
4389;SDS011;2209;48.982;8.406;2023-04-15T08:28:48;2.93;;;2.63;;
4389;SDS011;2209;48.982;8.406;2023-04-15T08:31:10;2.80;;;2.50;;
4389;SDS011;2209;48.982;8.406;2023-04-15T08:33:33;2.83;;;2.50;;
4389;SDS011;2209;48.982;8.406;2023-04-15T08:35:55;5.83;;;2.90;;
4389;SDS011;2209;48.982;8.406;2023-04-15T08:38:19;5.87;;;3.03;;
4389;SDS011;2209;48.982;8.406;2023-04-15T08:40:41;2.80;;;2.10;;
4389;SDS011;2209;48.982;8.406;2023-04-15T08:43:04;4.53;;;3.10;;
4389;SDS011;2209;48.982;8.406;2023-04-15T08:45:29;4.27;;;3.60;;
4389;SDS011;2209;48.982;8.406;2023-04-15T08:47:51;4.23;;;3.37;;
4389;SDS011;2209;48.982;8.406;2023-04-15T08:50:16;5.63;;;3.60;;
4389;SDS011;2209;48.982;8.406;2023-04-15T08:52:39;5.37;;;3.27;;
4389;SDS011;2209;48.982;8.406;2023-04-15T08:55:03;7.00;;;3.57;;
4389;SDS011;2209;48.982;8.406;2023-04-15T08:57:26;3.40;;;2.87;;
4389;SDS011;2209;48.982;8.406;2023-04-15T08:59:49;4.37;;;3.10;;
4389;SDS011;2209;48.982;8.406;2023-04-15T09:02:11;7.00;;;2.50;;
4389;SDS011;2209;48.982;8.406;2023-04-15T09:04:33;3.50;;;2.73;;
4389;SDS011;2209;48.982;8.406;2023-04-15T09:06:56;3.63;;;2.83;;
4389;SDS011;2209;48.982;8.406;2023-04-15T09:09:18;3.17;;;2.87;;
4389;SDS011;2209;48.982;8.406;2023-04-15T09:11:41;5.90;;;2.93;;
4389;SDS011;2209;48.982;8.406;2023-04-15T09:14:03;6.90;;;3.37;;
4389;SDS011;2209;48.982;8.406;2023-04-15T09:16:26;5.53;;;2.70;;
4389;SDS011;2209;48.982;8.406;2023-04-15T09:18:48;4.77;;;3.30;;
4389;SDS011;2209;48.982;8.406;2023-04-15T09:21:11;4.43;;;3.00;;
4389;SDS011;2209;48.982;8.406;2023-04-15T09:23:34;8.33;;;3.70;;
4389;SDS011;2209;48.982;8.406;2023-04-15T09:25:57;3.50;;;3.07;;
4389;SDS011;2209;48.982;8.406;2023-04-15T09:28:24;8.47;;;3.33;;
4389;SDS011;2209;48.982;8.406;2023-04-15T09:30:46;7.07;;;3.50;;
4389;SDS011;2209;48.982;8.406;2023-04-15T09:33:13;5.50;;;3.07;;
4389;SDS011;2209;48.982;8.406;2023-04-15T09:35:35;2.83;;;2.50;;
4389;SDS011;2209;48.982;8.406;2023-04-15T09:38:01;6.77;;;3.07;;
4389;SDS011;2209;48.982;8.406;2023-04-15T09:40:30;5.00;;;3.13;;
4389;SDS011;2209;48.982;8.406;2023-04-15T09:42:53;4.47;;;3.87;;
4389;SDS011;2209;48.982;8.406;2023-04-15T09:45:17;4.30;;;3.00;;
4389;SDS011;2209;48.982;8.406;2023-04-15T09:47:40;7.17;;;3.80;;
4389;SDS011;2209;48.982;8.406;2023-04-15T09:50:02;3.63;;;3.33;;
4389;SDS011;2209;48.982;8.406;2023-04-15T09:52:24;5.23;;;3.87;;
4389;SDS011;2209;48.982;8.406;2023-04-15T09:54:46;4.30;;;3.73;;
4389;SDS011;2209;48.982;8.406;2023-04-15T09:57:08;4.80;;;4.40;;
4389;SDS011;2209;48.982;8.406;2023-04-15T09:59:31;5.40;;;4.00;;
4389;SDS011;2209;48.982;8.406;2023-04-15T10:01:55;5.60;;;3.67;;
4389;SDS011;2209;48.982;8.406;2023-04-15T10:04:18;9.90;;;4.17;;
4389;SDS011;2209;48.982;8.406;2023-04-15T10:06:40;4.00;;;3.60;;
4389;SDS011;2209;48.982;8.406;2023-04-15T10:09:02;4.50;;;3.53;;
4389;SDS011;2209;48.982;8.406;2023-04-15T10:11:27;5.90;;;3.40;;
4389;SDS011;2209;48.982;8.406;2023-04-15T10:13:50;3.47;;;3.23;;
4389;SDS011;2209;48.982;8.406;2023-04-15T10:16:14;5.73;;;3.83;;
4389;SDS011;2209;48.982;8.406;2023-04-15T10:18:39;6.70;;;3.90;;
4389;SDS011;2209;48.982;8.406;2023-04-15T10:21:03;5.67;;;4.53;;
4389;SDS011;2209;48.982;8.406;2023-04-15T10:23:27;4.47;;;4.03;;
4389;SDS011;2209;48.982;8.406;2023-04-15T10:25:49;7.10;;;3.77;;
4389;SDS011;2209;48.982;8.406;2023-04-15T10:28:14;4.83;;;4.33;;
4389;SDS011;2209;48.982;8.406;2023-04-15T10:30:36;4.67;;;3.90;;
4389;SDS011;2209;48.982;8.406;2023-04-15T10:32:59;4.40;;;3.93;;
4389;SDS011;2209;48.982;8.406;2023-04-15T10:35:24;30.23;;;5.67;;
4389;SDS011;2209;48.982;8.406;2023-04-15T10:37:47;12.60;;;7.63;;
4389;SDS011;2209;48.982;8.406;2023-04-15T10:40:26;4.70;;;4.27;;
4389;SDS011;2209;48.982;8.406;2023-04-15T10:42:50;5.70;;;3.87;;
4389;SDS011;2209;48.982;8.406;2023-04-15T10:45:15;4.83;;;3.50;;
4389;SDS011;2209;48.982;8.406;2023-04-15T10:47:38;4.83;;;4.43;;
4389;SDS011;2209;48.982;8.406;2023-04-15T10:50:00;6.10;;;4.27;;
4389;SDS011;2209;48.982;8.406;2023-04-15T10:52:24;7.30;;;4.30;;
4389;SDS011;2209;48.982;8.406;2023-04-15T10:54:48;5.10;;;4.07;;
4389;SDS011;2209;48.982;8.406;2023-04-15T10:57:14;6.30;;;4.10;;
4389;SDS011;2209;48.982;8.406;2023-04-15T10:59:38;5.83;;;5.10;;
4389;SDS011;2209;48.982;8.406;2023-04-15T11:02:20;10.70;;;5.27;;
4389;SDS011;2209;48.982;8.406;2023-04-15T11:04:52;4.67;;;4.20;;
4389;SDS011;2209;48.982;8.406;2023-04-15T11:07:15;10.70;;;4.80;;
4389;SDS011;2209;48.982;8.406;2023-04-15T11:09:54;5.43;;;4.93;;
4389;SDS011;2209;48.982;8.406;2023-04-15T11:12:16;9.77;;;4.93;;
4389;SDS011;2209;48.982;8.406;2023-04-15T11:14:39;6.93;;;4.33;;
4389;SDS011;2209;48.982;8.406;2023-04-15T11:17:02;6.20;;;3.47;;
4389;SDS011;2209;48.982;8.406;2023-04-15T11:19:28;5.17;;;3.90;;
4389;SDS011;2209;48.982;8.406;2023-04-15T11:21:56;12.33;;;4.10;;
4389;SDS011;2209;48.982;8.406;2023-04-15T11:24:26;4.80;;;3.53;;
4389;SDS011;2209;48.982;8.406;2023-04-15T11:26:50;4.40;;;2.80;;
4389;SDS011;2209;48.982;8.406;2023-04-15T11:29:17;4.43;;;3.80;;
4389;SDS011;2209;48.982;8.406;2023-04-15T11:31:40;4.93;;;3.17;;
4389;SDS011;2209;48.982;8.406;2023-04-15T11:34:05;3.13;;;2.73;;
4389;SDS011;2209;48.982;8.406;2023-04-15T11:36:28;1.87;;;1.73;;
4389;SDS011;2209;48.982;8.406;2023-04-15T11:38:51;2.10;;;1.90;;
4389;SDS011;2209;48.982;8.406;2023-04-15T11:41:13;3.07;;;2.10;;
4389;SDS011;2209;48.982;8.406;2023-04-15T11:43:37;2.70;;;2.00;;
4389;SDS011;2209;48.982;8.406;2023-04-15T11:46:00;7.03;;;2.90;;
4389;SDS011;2209;48.982;8.406;2023-04-15T11:48:23;2.40;;;2.30;;
4389;SDS011;2209;48.982;8.406;2023-04-15T11:50:51;2.10;;;1.97;;
4389;SDS011;2209;48.982;8.406;2023-04-15T11:53:14;4.00;;;2.23;;
4389;SDS011;2209;48.982;8.406;2023-04-15T11:55:40;2.93;;;2.47;;
4389;SDS011;2209;48.982;8.406;2023-04-15T11:58:07;5.40;;;2.63;;
4389;SDS011;2209;48.982;8.406;2023-04-15T12:00:35;2.03;;;1.93;;
4389;SDS011;2209;48.982;8.406;2023-04-15T12:03:10;3.00;;;1.63;;
4389;SDS011;2209;48.982;8.406;2023-04-15T12:05:32;3.20;;;2.60;;
4389;SDS011;2209;48.982;8.406;2023-04-15T12:07:58;4.23;;;2.10;;
4389;SDS011;2209;48.982;8.406;2023-04-15T12:10:20;12.73;;;2.63;;
4389;SDS011;2209;48.982;8.406;2023-04-15T12:12:47;4.80;;;2.27;;
4389;SDS011;2209;48.982;8.406;2023-04-15T12:15:09;4.70;;;2.77;;
4389;SDS011;2209;48.982;8.406;2023-04-15T12:17:34;3.83;;;2.27;;
4389;SDS011;2209;48.982;8.406;2023-04-15T12:19:56;2.70;;;2.47;;
4389;SDS011;2209;48.982;8.406;2023-04-15T12:22:19;2.00;;;1.83;;
4389;SDS011;2209;48.982;8.406;2023-04-15T12:24:42;4.20;;;2.80;;
4389;SDS011;2209;48.982;8.406;2023-04-15T12:27:07;3.30;;;2.70;;
4389;SDS011;2209;48.982;8.406;2023-04-15T12:29:32;2.43;;;2.27;;
4389;SDS011;2209;48.982;8.406;2023-04-15T12:31:55;3.57;;;2.80;;
4389;SDS011;2209;48.982;8.406;2023-04-15T12:34:26;8.60;;;3.47;;
4389;SDS011;2209;48.982;8.406;2023-04-15T12:36:49;3.87;;;2.70;;
4389;SDS011;2209;48.982;8.406;2023-04-15T12:39:12;6.00;;;3.53;;
4389;SDS011;2209;48.982;8.406;2023-04-15T12:41:34;2.70;;;2.50;;
4389;SDS011;2209;48.982;8.406;2023-04-15T12:43:56;4.27;;;2.80;;
4389;SDS011;2209;48.982;8.406;2023-04-15T12:46:18;5.23;;;3.10;;
4389;SDS011;2209;48.982;8.406;2023-04-15T12:48:41;2.63;;;2.43;;
4389;SDS011;2209;48.982;8.406;2023-04-15T12:51:04;4.00;;;2.40;;
4389;SDS011;2209;48.982;8.406;2023-04-15T12:53:26;3.20;;;2.30;;
4389;SDS011;2209;48.982;8.406;2023-04-15T12:55:49;5.07;;;3.70;;
4389;SDS011;2209;48.982;8.406;2023-04-15T12:58:11;2.27;;;2.17;;
4389;SDS011;2209;48.982;8.406;2023-04-15T13:00:33;2.73;;;2.10;;
4389;SDS011;2209;48.982;8.406;2023-04-15T13:02:55;2.47;;;2.27;;
4389;SDS011;2209;48.982;8.406;2023-04-15T13:05:17;2.70;;;2.17;;
4389;SDS011;2209;48.982;8.406;2023-04-15T13:07:41;4.27;;;1.90;;
4389;SDS011;2209;48.982;8.406;2023-04-15T13:10:03;3.87;;;2.33;;
4389;SDS011;2209;48.982;8.406;2023-04-15T13:12:25;2.80;;;2.53;;
4389;SDS011;2209;48.982;8.406;2023-04-15T13:14:48;4.53;;;2.83;;
4389;SDS011;2209;48.982;8.406;2023-04-15T13:17:10;2.80;;;2.60;;
4389;SDS011;2209;48.982;8.406;2023-04-15T13:19:32;4.30;;;2.23;;
4389;SDS011;2209;48.982;8.406;2023-04-15T13:21:55;3.00;;;2.37;;
4389;SDS011;2209;48.982;8.406;2023-04-15T13:24:19;4.37;;;2.60;;
4389;SDS011;2209;48.982;8.406;2023-04-15T13:26:41;2.43;;;2.23;;
4389;SDS011;2209;48.982;8.406;2023-04-15T13:29:03;3.50;;;2.07;;
4389;SDS011;2209;48.982;8.406;2023-04-15T13:31:26;4.90;;;2.40;;
4389;SDS011;2209;48.982;8.406;2023-04-15T13:33:48;1.67;;;1.57;;
4389;SDS011;2209;48.982;8.406;2023-04-15T13:36:10;3.87;;;2.17;;
4389;SDS011;2209;48.982;8.406;2023-04-15T13:38:32;1.70;;;1.60;;
4389;SDS011;2209;48.982;8.406;2023-04-15T13:40:56;1.93;;;1.73;;
4389;SDS011;2209;48.982;8.406;2023-04-15T13:43:18;2.53;;;2.33;;
4389;SDS011;2209;48.982;8.406;2023-04-15T13:45:40;2.67;;;2.33;;
4389;SDS011;2209;48.982;8.406;2023-04-15T13:48:03;5.20;;;2.30;;
4389;SDS011;2209;48.982;8.406;2023-04-15T13:50:25;4.00;;;2.80;;
4389;SDS011;2209;48.982;8.406;2023-04-15T13:52:47;3.37;;;2.43;;
4389;SDS011;2209;48.982;8.406;2023-04-15T13:55:10;3.90;;;2.63;;
4389;SDS011;2209;48.982;8.406;2023-04-15T13:57:33;4.13;;;2.30;;
4389;SDS011;2209;48.982;8.406;2023-04-15T13:59:56;4.30;;;2.23;;
4389;SDS011;2209;48.982;8.406;2023-04-15T14:02:20;4.20;;;2.47;;
4389;SDS011;2209;48.982;8.406;2023-04-15T14:04:42;6.70;;;3.20;;
4389;SDS011;2209;48.982;8.406;2023-04-15T14:07:04;2.93;;;2.30;;
4389;SDS011;2209;48.982;8.406;2023-04-15T14:09:26;3.77;;;2.30;;
4389;SDS011;2209;48.982;8.406;2023-04-15T14:11:48;3.33;;;3.00;;
4389;SDS011;2209;48.982;8.406;2023-04-15T14:14:12;6.20;;;3.53;;
4389;SDS011;2209;48.982;8.406;2023-04-15T14:16:34;2.60;;;2.20;;
4389;SDS011;2209;48.982;8.406;2023-04-15T14:18:56;3.60;;;2.40;;
4389;SDS011;2209;48.982;8.406;2023-04-15T14:21:19;6.50;;;3.10;;
4389;SDS011;2209;48.982;8.406;2023-04-15T14:23:41;3.27;;;2.97;;
4389;SDS011;2209;48.982;8.406;2023-04-15T14:26:03;3.33;;;2.63;;
4389;SDS011;2209;48.982;8.406;2023-04-15T14:28:26;1.90;;;1.80;;
4389;SDS011;2209;48.982;8.406;2023-04-15T14:30:49;2.13;;;1.80;;
4389;SDS011;2209;48.982;8.406;2023-04-15T14:33:11;4.20;;;3.23;;
4389;SDS011;2209;48.982;8.406;2023-04-15T14:35:33;2.70;;;1.93;;
4389;SDS011;2209;48.982;8.406;2023-04-15T14:37:56;2.53;;;1.60;;
4389;SDS011;2209;48.982;8.406;2023-04-15T14:40:18;2.17;;;2.00;;
4389;SDS011;2209;48.982;8.406;2023-04-15T14:42:40;3.00;;;1.83;;
4389;SDS011;2209;48.982;8.406;2023-04-15T14:45:02;2.40;;;1.60;;
4389;SDS011;2209;48.982;8.406;2023-04-15T14:47:26;2.43;;;1.83;;
4389;SDS011;2209;48.982;8.406;2023-04-15T14:49:48;2.10;;;1.97;;
4389;SDS011;2209;48.982;8.406;2023-04-15T14:52:11;3.70;;;1.57;;